createdAt,value
2019-04-21T00:00:24.193Z,1.00
2019-04-21T00:03:00.719Z,0.50
2019-04-21T00:06:00.171Z,1.13
2019-04-21T00:11:16.093Z,1.10
2019-04-21T00:13:43.966Z,1.97
2019-04-21T00:16:06.820Z,2.03
2019-04-21T00:19:01.098Z,1.30
2019-04-21T00:21:36.543Z,2.67
2019-04-21T00:24:23.864Z,2.13
2019-04-21T00:27:05.726Z,1.83
2019-04-21T00:32:11.069Z,2.03
2019-04-21T00:34:32.160Z,1.33
2019-04-21T00:37:15.774Z,1.47
2019-04-21T00:40:06.414Z,1.57
2019-04-21T00:42:36.225Z,0.70
2019-04-21T00:45:09.815Z,0.60
2019-04-21T00:47:55.549Z,2.40
2019-04-21T00:50:33.769Z,5.53
2019-04-21T00:53:22.491Z,0.97
2019-04-21T00:55:57.338Z,0.70
2019-04-21T00:58:33.122Z,0.97
2019-04-21T01:01:04.450Z,1.20
2019-04-21T01:03:46.058Z,3.60
2019-04-21T01:06:18.302Z,1.60
2019-04-21T01:08:55.656Z,0.70
2019-04-21T01:11:37.681Z,0.60
2019-04-21T01:14:05.483Z,0.77
2019-04-21T01:16:48.542Z,2.03
2019-04-21T01:19:16.865Z,0.63
2019-04-21T01:21:32.456Z,0.47
2019-04-21T01:24:16.894Z,2.23
2019-04-21T01:26:52.490Z,0.57
2019-04-21T01:29:41.498Z,0.90
2019-04-21T01:32:19.736Z,1.00
2019-04-21T01:34:49.660Z,0.50
2019-04-21T01:37:34.408Z,0.80
2019-04-21T01:40:06.619Z,1.10
2019-04-21T01:43:23.405Z,2.53
2019-04-21T01:45:53.550Z,0.53
2019-04-21T01:48:32.022Z,0.40
2019-04-21T01:51:05.099Z,2.33
2019-04-21T01:54:00.733Z,4.33
2019-04-21T01:56:56.966Z,0.90
2019-04-21T01:59:26.912Z,2.67
2019-04-21T02:02:11.091Z,0.50
2019-04-21T02:04:50.581Z,0.77
2019-04-21T02:07:20.633Z,1.20
2019-04-21T02:10:04.843Z,0.50
2019-04-21T02:12:40.630Z,0.70
2019-04-21T02:15:14.303Z,1.60
2019-04-21T02:17:50.843Z,1.20
2019-04-21T02:20:12.301Z,1.17
2019-04-21T02:23:10.062Z,1.10
2019-04-21T02:25:34.879Z,1.30
2019-04-21T02:28:13.494Z,1.30
2019-04-21T02:31:09.017Z,2.67
2019-04-21T02:38:48.225Z,1.63
2019-04-21T02:41:18.767Z,0.60
2019-04-21T02:44:02.232Z,3.13
2019-04-21T02:46:35.324Z,2.13
2019-04-21T02:49:04.061Z,1.13
2019-04-21T02:56:53.456Z,1.83
2019-04-21T03:05:01.809Z,3.87
2019-04-21T03:07:44.269Z,1.67
2019-04-21T03:12:52.980Z,6.97
2019-04-21T03:18:04.962Z,2.87
2019-04-21T03:23:20.956Z,1.00
2019-04-21T03:25:52.046Z,1.83
2019-04-21T03:28:29.705Z,2.37
2019-04-21T03:34:18.086Z,1.37
2019-04-21T03:36:41.318Z,1.53
2019-04-21T03:38:55.596Z,1.77
2019-04-21T03:41:32.353Z,1.93
2019-04-21T03:44:12.326Z,1.63
2019-04-21T03:46:47.384Z,2.23
2019-04-21T03:49:27.487Z,1.63
2019-04-21T03:54:41.464Z,2.00
2019-04-21T03:57:24.030Z,1.33
2019-04-21T04:00:00.794Z,2.30
2019-04-21T04:02:55.135Z,1.97
2019-04-21T04:06:02.046Z,5.90
2019-04-21T04:08:47.720Z,2.80
2019-04-21T04:11:29.443Z,2.53
2019-04-21T04:14:04.032Z,1.27
2019-04-21T04:21:37.217Z,1.83
2019-04-21T04:24:22.371Z,4.27
2019-04-21T04:27:01.924Z,2.63
2019-04-21T04:29:32.118Z,3.20
2019-04-21T04:32:08.024Z,1.77
2019-04-21T04:43:09.127Z,3.53
2019-04-21T04:48:11.124Z,3.20
2019-04-21T04:50:49.683Z,4.40
2019-04-21T04:56:01.390Z,5.57
2019-04-21T04:58:56.379Z,2.83
2019-04-21T05:06:58.353Z,3.17
2019-04-21T05:09:25.318Z,4.73
2019-04-21T05:11:55.661Z,4.37
2019-04-21T05:14:36.779Z,2.53
2019-04-21T05:17:08.583Z,4.53
2019-04-21T05:19:41.910Z,4.50
2019-04-21T05:24:44.187Z,3.70
2019-04-21T05:27:43.786Z,4.10
2019-04-21T05:30:34.144Z,5.50
2019-04-21T05:33:27.646Z,4.13
2019-04-21T05:36:09.380Z,2.80
2019-04-21T05:39:06.487Z,3.90
2019-04-21T05:41:31.405Z,2.13
2019-04-21T05:44:19.351Z,3.70
2019-04-21T05:47:03.809Z,3.57
2019-04-21T05:49:46.642Z,3.13
2019-04-21T05:52:17.309Z,6.60
2019-04-21T05:57:33.537Z,3.17
2019-04-21T06:00:12.378Z,6.27
2019-04-21T06:02:55.216Z,4.23
2019-04-21T06:08:02.986Z,3.93
2019-04-21T06:10:43.304Z,5.93
2019-04-21T06:13:24.393Z,4.00
2019-04-21T06:15:56.216Z,4.57
2019-04-21T06:18:41.343Z,4.57
2019-04-21T06:21:05.668Z,3.97
2019-04-21T06:23:49.624Z,3.87
2019-04-21T06:26:28.195Z,3.50
2019-04-21T06:29:04.284Z,2.97
2019-04-21T06:31:57.861Z,6.17
2019-04-21T06:34:04.770Z,4.60
2019-04-21T06:37:21.529Z,4.93
2019-04-21T06:40:01.948Z,5.00
2019-04-21T06:42:21.209Z,2.43
2019-04-21T06:47:51.304Z,3.93
2019-04-21T06:50:09.674Z,3.83
2019-04-21T06:55:32.080Z,4.90
2019-04-21T06:58:23.157Z,3.23
2019-04-21T07:00:55.922Z,5.57
2019-04-21T07:03:35.649Z,8.07
2019-04-21T07:06:12.661Z,4.13
2019-04-21T07:08:55.120Z,3.53
2019-04-21T07:11:19.519Z,7.60
2019-04-21T07:14:25.911Z,3.93
2019-04-21T07:17:08.093Z,5.93
2019-04-21T07:19:36.646Z,3.80
2019-04-21T07:22:03.200Z,6.80
2019-04-21T07:24:36.806Z,5.70
2019-04-21T07:27:16.281Z,4.13
2019-04-21T07:29:55.086Z,3.70
2019-04-21T07:32:31.911Z,4.10
2019-04-21T07:35:11.835Z,3.50
2019-04-21T07:37:41.564Z,4.53
2019-04-21T07:40:13.467Z,4.03
2019-04-21T07:42:51.426Z,4.50
2019-04-21T07:45:27.619Z,7.30
2019-04-21T07:48:32.243Z,5.93
2019-04-21T07:51:18.458Z,4.23
2019-04-21T07:53:59.677Z,3.57
2019-04-21T07:56:15.898Z,4.33
2019-04-21T07:59:02.105Z,3.97
2019-04-21T08:01:43.897Z,3.33
2019-04-21T08:06:53.568Z,6.17
2019-04-21T08:09:27.506Z,3.03
2019-04-21T08:12:01.389Z,4.07
2019-04-21T08:14:42.865Z,5.87
2019-04-21T08:17:16.622Z,3.20
2019-04-21T08:19:56.099Z,3.37
2019-04-21T08:22:33.505Z,3.47
2019-04-21T08:25:09.206Z,3.20
2019-04-21T08:27:49.485Z,3.20
2019-04-21T08:30:21.156Z,3.77
2019-04-21T08:33:24.700Z,7.27
2019-04-21T08:38:15.065Z,3.73
2019-04-21T08:41:01.929Z,4.07
2019-04-21T08:46:24.033Z,11.30
2019-04-21T08:49:04.332Z,3.23
2019-04-21T08:51:47.318Z,2.83
2019-04-21T08:54:23.505Z,3.13
2019-04-21T08:57:10.404Z,3.33
2019-04-21T09:00:16.761Z,3.07
2019-04-21T09:03:11.721Z,2.50
2019-04-21T09:05:45.683Z,3.33
2019-04-21T09:08:31.638Z,4.00
2019-04-21T09:11:02.059Z,3.37
2019-04-21T09:13:42.610Z,2.60
2019-04-21T09:16:17.183Z,5.60
2019-04-21T09:18:47.960Z,3.60
2019-04-21T09:21:26.929Z,5.23
2019-04-21T09:24:07.455Z,5.73
2019-04-21T09:26:34.017Z,5.17
2019-04-21T09:29:07.845Z,3.83
2019-04-21T09:31:39.751Z,3.50
2019-04-21T09:34:14.298Z,3.07
2019-04-21T09:36:51.290Z,6.13
2019-04-21T09:39:26.278Z,3.37
2019-04-21T09:42:02.802Z,5.07
2019-04-21T09:44:40.316Z,5.60
2019-04-21T09:47:15.485Z,4.40
2019-04-21T09:49:49.506Z,3.53
2019-04-21T09:52:29.136Z,3.97
2019-04-21T09:55:06.872Z,3.80
2019-04-21T09:57:43.345Z,5.27
2019-04-21T10:00:18.228Z,3.83
2019-04-21T10:02:55.618Z,2.70
2019-04-21T10:05:22.168Z,5.13
2019-04-21T10:07:57.361Z,3.03
2019-04-21T10:10:31.835Z,3.30
2019-04-21T10:13:07.064Z,2.87
2019-04-21T10:15:41.968Z,3.60
2019-04-21T10:18:21.529Z,4.50
2019-04-21T10:20:57.036Z,3.77
2019-04-21T10:23:31.670Z,3.80
2019-04-21T10:26:06.765Z,3.33
2019-04-21T10:28:41.396Z,4.63
2019-04-21T10:31:16.747Z,6.90
2019-04-21T10:33:52.644Z,7.33
2019-04-21T10:36:26.872Z,4.57
2019-04-21T10:39:02.327Z,4.30
2019-04-21T10:41:41.417Z,4.83
2019-04-21T10:44:16.863Z,5.37
2019-04-21T10:46:52.518Z,5.53
2019-04-21T10:49:26.600Z,4.30
2019-04-21T10:52:04.687Z,5.60
2019-04-21T10:55:02.510Z,7.73
2019-04-21T10:57:20.079Z,5.67
2019-04-21T10:59:55.891Z,4.50
2019-04-21T11:02:41.117Z,4.30
2019-04-21T11:05:16.476Z,8.37
2019-04-21T11:08:08.852Z,6.33
2019-04-21T11:10:31.992Z,4.53
2019-04-21T11:13:05.601Z,9.13
2019-04-21T11:15:41.219Z,7.93
2019-04-21T11:18:15.860Z,6.47
2019-04-21T11:20:56.752Z,6.43
2019-04-21T11:23:31.353Z,14.47
2019-04-21T11:26:10.002Z,5.20
2019-04-21T11:28:45.258Z,11.40
2019-04-21T11:31:20.801Z,9.17
2019-04-21T11:34:01.442Z,6.53
2019-04-21T11:36:37.463Z,7.37
2019-04-21T11:39:39.168Z,7.50
2019-04-21T11:42:10.049Z,9.27
2019-04-21T11:44:45.226Z,6.53
2019-04-21T11:47:32.206Z,4.80
2019-04-21T11:50:07.467Z,5.00
2019-04-21T11:52:43.083Z,3.97
2019-04-21T11:55:18.659Z,8.43
2019-04-21T11:57:54.635Z,5.17
2019-04-21T12:00:29.476Z,8.70
2019-04-21T12:03:05.708Z,5.37
2019-04-21T12:05:41.360Z,8.43
2019-04-21T12:08:23.031Z,5.10
2019-04-21T12:10:51.568Z,7.30
2019-04-21T12:13:25.871Z,6.43
2019-04-21T12:16:01.010Z,4.30
2019-04-21T12:18:36.724Z,5.13
2019-04-21T12:21:11.470Z,4.60
2019-04-21T12:23:45.783Z,5.73
2019-04-21T12:26:22.133Z,3.83
2019-04-21T12:28:55.904Z,3.33
2019-04-21T12:32:17.872Z,2.47
2019-04-21T12:34:36.215Z,4.97
2019-04-21T12:37:12.920Z,9.60
2019-04-21T12:39:48.626Z,6.53
2019-04-21T12:42:24.887Z,3.50
2019-04-21T12:44:59.351Z,4.10
2019-04-21T12:47:34.124Z,4.93
2019-04-21T12:50:17.036Z,3.10
2019-04-21T12:52:53.576Z,3.53
2019-04-21T12:55:35.662Z,5.53
2019-04-21T12:58:06.067Z,3.67
2019-04-21T13:00:40.933Z,3.13
2019-04-21T13:03:15.880Z,3.97
2019-04-21T13:05:51.730Z,2.63
2019-04-21T13:08:27.163Z,2.97
2019-04-21T13:11:02.288Z,4.70
2019-04-21T13:13:37.646Z,2.83
2019-04-21T13:16:15.575Z,3.17
2019-04-21T13:18:51.341Z,6.90
2019-04-21T13:21:25.843Z,3.40
2019-04-21T13:24:01.019Z,4.17
2019-04-21T13:26:42.924Z,3.93
2019-04-21T13:29:14.579Z,17.90
2019-04-21T13:31:48.247Z,3.47
2019-04-21T13:34:22.238Z,2.20
2019-04-21T13:36:57.269Z,4.43
2019-04-21T13:40:18.218Z,3.53
2019-04-21T13:42:38.364Z,5.10
2019-04-21T13:45:08.116Z,3.70
2019-04-21T13:48:08.401Z,2.23
2019-04-21T13:50:43.561Z,2.57
2019-04-21T13:53:22.802Z,3.63
2019-04-21T13:55:58.594Z,2.57
2019-04-21T13:58:40.488Z,2.30
2019-04-21T14:01:16.018Z,5.67
2019-04-21T14:03:51.635Z,15.53
2019-04-21T14:06:32.578Z,14.80
2019-04-21T14:09:13.679Z,8.73
2019-04-21T14:11:52.510Z,2.40
2019-04-21T14:14:26.199Z,3.50
2019-04-21T14:17:00.600Z,4.67
2019-04-21T14:19:35.133Z,3.93
2019-04-21T14:22:11.641Z,1.70
2019-04-21T14:24:45.793Z,2.23
2019-04-21T14:27:28.179Z,1.70
2019-04-21T14:30:02.931Z,7.73
2019-04-21T14:32:44.362Z,12.07
2019-04-21T14:35:18.923Z,3.13
2019-04-21T14:37:52.949Z,4.47
2019-04-21T14:40:29.454Z,4.30
2019-04-21T14:43:02.677Z,2.43
2019-04-21T14:45:53.121Z,1.80
2019-04-21T14:48:53.028Z,1.93
2019-04-21T14:51:52.763Z,3.57
2019-04-21T14:54:54.325Z,2.67
2019-04-21T14:57:29.518Z,2.10
2019-04-21T15:00:04.917Z,2.20
2019-04-21T15:02:39.934Z,4.57
2019-04-21T15:05:15.990Z,4.60
2019-04-21T15:07:51.342Z,7.03
2019-04-21T15:10:28.990Z,5.00
2019-04-21T15:13:01.689Z,2.57
2019-04-21T15:15:36.115Z,6.90
2019-04-21T15:18:10.727Z,4.77
2019-04-21T15:20:50.294Z,4.50
2019-04-21T15:23:25.226Z,7.57
2019-04-21T15:25:57.777Z,7.00
2019-04-21T15:28:33.808Z,4.80
2019-04-21T15:31:08.280Z,5.30
2019-04-21T15:33:43.182Z,3.10
2019-04-21T15:36:16.822Z,2.33
2019-04-21T15:38:51.969Z,4.20
2019-04-21T15:41:26.710Z,2.37
2019-04-21T15:44:03.196Z,8.43
2019-04-21T15:46:37.604Z,3.73
2019-04-21T15:49:11.306Z,6.30
2019-04-21T15:51:46.344Z,2.77
2019-04-21T15:54:20.712Z,3.70
2019-04-21T15:57:00.718Z,2.93
2019-04-21T16:00:02.804Z,1.80
2019-04-21T16:02:46.722Z,2.03
2019-04-21T16:05:22.425Z,4.77
2019-04-21T16:07:58.186Z,3.07
2019-04-21T16:10:42.845Z,4.30
2019-04-21T16:13:09.812Z,3.47
2019-04-21T16:15:44.283Z,1.20
2019-04-21T16:18:18.278Z,5.90
2019-04-21T16:20:53.599Z,4.03
2019-04-21T16:23:28.696Z,3.43
2019-04-21T16:26:04.394Z,3.37
2019-04-21T16:28:39.488Z,5.40
2019-04-21T16:31:14.597Z,3.00
2019-04-21T16:33:49.182Z,2.50
2019-04-21T16:36:29.273Z,2.27
2019-04-21T16:39:05.175Z,3.20
2019-04-21T16:41:40.401Z,3.57
2019-04-21T16:44:16.728Z,4.23
2019-04-21T16:46:51.698Z,4.40
2019-04-21T16:49:25.487Z,3.73
2019-04-21T16:52:18.516Z,8.43
2019-04-21T16:55:07.015Z,4.87
2019-04-21T16:57:59.590Z,6.70
2019-04-21T17:00:37.774Z,5.83
2019-04-21T17:03:04.547Z,3.93
2019-04-21T17:05:43.168Z,3.97
2019-04-21T17:08:17.806Z,4.07
2019-04-21T17:11:03.014Z,6.27
2019-04-21T17:13:29.603Z,12.83
2019-04-21T17:16:27.343Z,7.77
2019-04-21T17:18:51.451Z,9.33
2019-04-21T17:21:16.804Z,10.40
2019-04-21T17:23:54.592Z,10.43
2019-04-21T17:26:29.101Z,10.93
2019-04-21T17:29:02.844Z,13.57
2019-04-21T17:31:37.270Z,24.60
2019-04-21T17:34:16.236Z,20.63
2019-04-21T17:36:48.715Z,24.83
2019-04-21T17:39:22.855Z,20.63
2019-04-21T17:42:12.961Z,12.27
2019-04-21T17:44:35.242Z,21.30
2019-04-21T17:47:21.217Z,21.20
2019-04-21T17:49:48.713Z,20.67
2019-04-21T17:52:48.156Z,30.50
2019-04-21T17:55:29.417Z,23.63
2019-04-21T17:58:14.874Z,10.23
2019-04-21T18:03:43.650Z,18.63
2019-04-21T18:06:05.094Z,8.77
2019-04-21T18:08:49.488Z,7.90
2019-04-21T18:11:18.177Z,1.80
2019-04-21T18:13:43.926Z,12.57
2019-04-21T18:16:25.071Z,5.93
2019-04-21T18:18:55.125Z,4.57
2019-04-21T18:21:40.904Z,9.20
2019-04-21T18:24:17.465Z,8.37
2019-04-21T18:26:55.387Z,4.20
2019-04-21T18:29:25.664Z,12.37
2019-04-21T18:32:01.091Z,7.33
2019-04-21T18:35:01.560Z,5.43
2019-04-21T18:37:50.841Z,11.87
2019-04-21T18:40:28.063Z,20.87
2019-04-21T18:43:38.350Z,5.50
2019-04-21T18:46:22.420Z,4.70
2019-04-21T18:48:51.560Z,4.47
2019-04-21T18:51:57.337Z,2.50
2019-04-21T18:54:43.119Z,4.87
2019-04-21T18:57:10.652Z,4.47
2019-04-21T18:59:45.164Z,8.10
2019-04-21T19:02:24.447Z,3.80
2019-04-21T19:05:05.807Z,3.17
2019-04-21T19:07:58.323Z,4.93
2019-04-21T19:13:28.501Z,7.13
2019-04-21T19:15:42.549Z,7.83
2019-04-21T19:18:32.552Z,6.60
2019-04-21T19:20:54.244Z,10.73
2019-04-21T19:23:45.268Z,8.67
2019-04-21T19:26:21.901Z,10.70
2019-04-21T19:28:52.620Z,13.33
2019-04-21T19:31:24.841Z,16.87
2019-04-21T19:33:51.699Z,9.60
2019-04-21T19:36:17.356Z,6.63
2019-04-21T19:38:59.606Z,22.63
2019-04-21T19:41:41.121Z,9.77
2019-04-21T19:44:24.474Z,5.27
2019-04-21T19:46:58.680Z,3.57
2019-04-21T19:49:43.694Z,7.00
2019-04-21T19:52:03.026Z,5.10
2019-04-21T19:54:33.952Z,6.00
2019-04-21T19:57:04.926Z,4.83
2019-04-21T19:59:48.549Z,4.43
2019-04-21T20:02:22.453Z,2.17
2019-04-21T20:05:03.103Z,2.27
2019-04-21T20:07:45.539Z,2.73
2019-04-21T20:10:27.058Z,4.10
2019-04-21T20:13:03.718Z,3.37
2019-04-21T20:15:42.038Z,1.93
2019-04-21T20:18:07.158Z,2.33
2019-04-21T20:20:33.058Z,2.60
2019-04-21T20:23:13.274Z,3.07
2019-04-21T20:25:47.428Z,1.80
2019-04-21T20:28:30.521Z,4.77
2019-04-21T20:31:06.770Z,1.93
2019-04-21T20:36:23.791Z,1.90
2019-04-21T20:38:45.256Z,3.23
2019-04-21T20:41:33.959Z,3.97
2019-04-21T20:44:06.230Z,2.87
2019-04-21T20:46:42.637Z,1.73
2019-04-21T20:49:14.444Z,3.97
2019-04-21T20:51:59.992Z,1.93
2019-04-21T20:54:29.039Z,3.60
2019-04-21T20:57:01.675Z,4.53
2019-04-21T20:59:35.665Z,4.43
2019-04-21T21:02:10.155Z,4.33
2019-04-21T21:04:40.339Z,2.03
2019-04-21T21:07:34.622Z,2.20
2019-04-21T21:10:08.761Z,3.03
2019-04-21T21:12:43.191Z,4.23
2019-04-21T21:15:04.145Z,3.10
2019-04-21T21:17:53.863Z,7.07
2019-04-21T21:20:24.888Z,1.17
2019-04-21T21:22:56.180Z,3.50
2019-04-21T21:25:39.865Z,2.40
2019-04-21T21:28:04.340Z,3.30
2019-04-21T21:30:43.529Z,3.53
2019-04-21T21:33:22.826Z,3.00
2019-04-21T21:36:06.543Z,1.97
2019-04-21T21:38:39.301Z,2.73
2019-04-21T21:41:03.231Z,2.47
2019-04-21T21:43:32.404Z,5.43
2019-04-21T21:46:15.804Z,6.43
2019-04-21T21:48:54.111Z,4.00
2019-04-21T21:51:29.068Z,2.97
2019-04-21T21:53:52.696Z,2.97
2019-04-21T21:56:26.865Z,2.30
2019-04-21T21:59:09.601Z,2.60
2019-04-21T22:01:41.598Z,2.80
2019-04-21T22:04:18.356Z,6.77
2019-04-21T22:06:55.345Z,4.63
2019-04-21T22:09:22.030Z,2.70
2019-04-21T22:12:00.485Z,6.60
2019-04-21T22:14:37.230Z,2.93
2019-04-21T22:17:21.783Z,5.40
2019-04-21T22:20:02.995Z,3.37
2019-04-21T22:22:31.534Z,2.13
2019-04-21T22:25:05.976Z,2.20
2019-04-21T22:27:30.752Z,3.77
2019-04-21T22:30:07.800Z,4.57
2019-04-21T22:32:50.262Z,3.50
2019-04-21T22:35:27.363Z,2.63
2019-04-21T22:38:11.801Z,3.93
2019-04-21T22:40:44.053Z,6.63
2019-04-21T22:43:11.624Z,6.70
2019-04-21T22:45:39.216Z,7.40
2019-04-21T22:48:17.473Z,6.50
2019-04-21T22:50:50.631Z,2.13
2019-04-21T22:53:29.143Z,2.70
2019-04-21T22:56:11.966Z,3.53
2019-04-21T22:58:39.416Z,4.70
2019-04-21T23:01:13.121Z,3.17
2019-04-21T23:03:50.833Z,9.93
2019-04-21T23:06:27.319Z,2.10
2019-04-21T23:08:59.269Z,5.23
2019-04-21T23:11:35.869Z,5.83
2019-04-21T23:14:11.349Z,3.20
2019-04-21T23:16:45.664Z,4.23
2019-04-21T23:19:32.430Z,6.03
2019-04-21T23:22:10.183Z,3.13
2019-04-21T23:24:59.549Z,6.20
2019-04-21T23:27:15.482Z,4.27
2019-04-21T23:30:03.322Z,3.63
2019-04-21T23:32:29.432Z,11.03
2019-04-21T23:34:51.079Z,3.50
2019-04-21T23:37:27.159Z,7.90
2019-04-21T23:40:07.637Z,3.87
2019-04-21T23:42:40.085Z,6.97
2019-04-21T23:45:12.307Z,6.03
2019-04-21T23:47:57.807Z,4.33
2019-04-21T23:50:34.290Z,4.70
2019-04-21T23:52:57.299Z,7.73
2019-04-21T23:55:31.655Z,4.13
2019-04-21T23:58:11.251Z,5.60
